createdAt,value
2019-01-11T00:00:13.705Z,28.07
2019-01-11T00:02:47.195Z,29.83
2019-01-11T00:05:19.297Z,34.07
2019-01-11T00:07:50.826Z,29.50
2019-01-11T00:10:23.502Z,30.60
2019-01-11T00:12:55.595Z,31.63
2019-01-11T00:15:27.736Z,32.90
2019-01-11T00:17:59.142Z,34.13
2019-01-11T00:20:30.863Z,33.83
2019-01-11T00:23:02.414Z,30.90
2019-01-11T00:25:35.030Z,33.37
2019-01-11T00:28:06.658Z,37.43
2019-01-11T00:30:38.272Z,36.43
2019-01-11T00:33:10.166Z,34.10
2019-01-11T00:35:41.748Z,33.70
2019-01-11T00:38:13.582Z,32.83
2019-01-11T00:40:45.292Z,33.10
2019-01-11T00:43:17.816Z,32.17
2019-01-11T00:45:49.220Z,30.80
2019-01-11T00:48:20.674Z,30.97
2019-01-11T00:50:52.041Z,30.57
2019-01-11T00:53:23.998Z,31.77
2019-01-11T00:55:55.424Z,30.07
2019-01-11T00:58:29.376Z,33.73
2019-01-11T01:01:02.665Z,33.47
2019-01-11T01:03:34.560Z,33.60
2019-01-11T01:06:06.881Z,37.50
2019-01-11T01:08:38.223Z,31.57
2019-01-11T01:11:09.975Z,32.13
2019-01-11T01:13:42.537Z,33.20
2019-01-11T01:16:15.460Z,35.13
2019-01-11T01:18:47.298Z,35.23
2019-01-11T01:21:18.586Z,33.00
2019-01-11T01:23:50.901Z,33.17
2019-01-11T01:26:22.306Z,35.33
2019-01-11T01:28:54.643Z,30.27
2019-01-11T01:31:26.437Z,34.03
2019-01-11T01:33:59.191Z,33.43
2019-01-11T01:36:30.707Z,35.57
2019-01-11T01:39:02.265Z,34.10
2019-01-11T01:41:34.855Z,31.47
2019-01-11T01:44:06.323Z,31.47
2019-01-11T01:46:40.213Z,35.57
2019-01-11T01:49:11.741Z,35.13
2019-01-11T01:51:43.563Z,33.73
2019-01-11T01:54:16.949Z,34.07
2019-01-11T01:56:48.493Z,33.50
2019-01-11T01:59:19.908Z,33.17
2019-01-11T02:01:51.483Z,33.97
2019-01-11T02:04:23.531Z,38.87
2019-01-11T02:06:55.499Z,32.30
2019-01-11T02:09:28.651Z,31.37
2019-01-11T02:11:59.991Z,33.80
2019-01-11T02:14:31.741Z,34.30
2019-01-11T02:17:03.474Z,32.90
2019-01-11T02:19:36.759Z,33.93
2019-01-11T02:22:08.652Z,31.90
2019-01-11T02:24:40.163Z,30.20
2019-01-11T02:27:49.914Z,35.43
2019-01-11T02:30:28.726Z,32.93
2019-01-11T02:33:03.126Z,30.83
2019-01-11T02:35:38.806Z,31.93
2019-01-11T02:38:14.546Z,30.47
2019-01-11T02:40:47.915Z,30.87
2019-01-11T02:43:19.434Z,30.00
2019-01-11T02:45:51.855Z,30.27
2019-01-11T02:48:25.068Z,28.67
2019-01-11T02:50:56.523Z,28.30
2019-01-11T02:53:27.886Z,28.83
2019-01-11T02:56:01.273Z,27.70
2019-01-11T02:58:33.376Z,27.23
2019-01-11T03:01:04.924Z,26.70
2019-01-11T03:03:36.402Z,27.43
2019-01-11T03:06:08.764Z,25.53
2019-01-11T03:08:40.394Z,25.10
2019-01-11T03:11:12.393Z,25.93
2019-01-11T03:13:43.839Z,23.80
2019-01-11T03:16:15.140Z,24.53
2019-01-11T03:18:47.309Z,22.97
2019-01-11T03:21:20.592Z,23.43
2019-01-11T03:23:52.174Z,24.23
2019-01-11T03:26:23.618Z,22.17
2019-01-11T03:28:55.506Z,21.90
2019-01-11T03:31:34.275Z,22.10
2019-01-11T03:34:05.956Z,19.53
2019-01-11T03:36:37.482Z,20.13
2019-01-11T03:39:10.401Z,20.03
2019-01-11T03:42:08.106Z,20.03
2019-01-11T03:44:40.947Z,19.03
2019-01-11T03:47:12.407Z,19.23
2019-01-11T03:49:43.916Z,20.23
2019-01-11T03:52:15.291Z,20.83
2019-01-11T03:54:46.882Z,21.33
2019-01-11T03:57:18.501Z,21.60
2019-01-11T03:59:50.059Z,22.83
2019-01-11T04:02:21.399Z,23.20
2019-01-11T04:04:52.910Z,23.87
2019-01-11T04:07:24.405Z,25.33
2019-01-11T04:09:56.544Z,25.53
2019-01-11T04:12:28.285Z,24.10
2019-01-11T04:14:59.833Z,26.57
2019-01-11T04:17:31.712Z,26.60
2019-01-11T04:20:05.293Z,26.40
2019-01-11T04:22:40.919Z,28.50
2019-01-11T04:25:24.655Z,27.70
2019-01-11T04:27:56.061Z,27.67
2019-01-11T04:30:27.529Z,30.90
2019-01-11T04:32:59.451Z,28.93
2019-01-11T04:35:31.415Z,30.53
2019-01-11T04:38:04.361Z,31.73
2019-01-11T04:40:37.622Z,30.67
2019-01-11T04:43:10.587Z,30.73
2019-01-11T04:45:42.041Z,31.33
2019-01-11T04:48:14.134Z,33.37
2019-01-11T04:50:45.530Z,28.63
2019-01-11T04:53:18.730Z,32.23
2019-01-11T04:55:50.384Z,33.33
2019-01-11T04:58:23.567Z,30.60
2019-01-11T05:00:55.280Z,28.87
2019-01-11T05:03:28.539Z,31.97
2019-01-11T05:05:59.969Z,33.13
2019-01-11T05:08:32.700Z,33.13
2019-01-11T05:11:04.226Z,32.77
2019-01-11T05:13:49.713Z,31.23
2019-01-11T05:16:21.747Z,31.77
2019-01-11T05:18:54.850Z,33.37
2019-01-11T05:21:26.740Z,33.60
2019-01-11T05:24:01.016Z,32.60
2019-01-11T05:26:33.596Z,36.87
2019-01-11T05:29:06.904Z,34.53
2019-01-11T05:31:40.127Z,34.43
2019-01-11T05:34:11.446Z,35.67
2019-01-11T05:36:42.972Z,39.43
2019-01-11T05:39:14.365Z,40.13
2019-01-11T05:41:45.822Z,38.30
2019-01-11T05:44:18.358Z,34.33
2019-01-11T05:46:50.168Z,35.83
2019-01-11T05:49:21.770Z,35.17
2019-01-11T05:51:53.388Z,33.07
2019-01-11T05:54:25.382Z,41.57
2019-01-11T05:56:58.408Z,42.33
2019-01-11T05:59:29.886Z,48.33
2019-01-11T06:02:01.682Z,35.33
2019-01-11T06:04:47.428Z,38.13
2019-01-11T06:07:27.874Z,35.50
2019-01-11T06:09:59.757Z,35.43
2019-01-11T06:12:31.406Z,30.53
2019-01-11T06:15:04.061Z,31.47
2019-01-11T06:17:35.638Z,29.43
2019-01-11T06:20:10.936Z,24.70
2019-01-11T06:23:00.892Z,16.67
2019-01-11T06:25:32.317Z,14.00
2019-01-11T06:28:03.841Z,16.13
2019-01-11T06:30:36.158Z,11.50
2019-01-11T06:33:07.643Z,8.63
2019-01-11T06:35:39.101Z,5.47
2019-01-11T06:38:10.534Z,7.37
2019-01-11T06:40:42.481Z,6.63
2019-01-11T06:43:14.185Z,6.13
2019-01-11T06:45:45.922Z,5.73
2019-01-11T06:48:26.887Z,7.77
2019-01-11T06:51:00.267Z,7.03
2019-01-11T06:53:31.868Z,5.57
2019-01-11T06:56:03.525Z,7.43
2019-01-11T06:58:35.241Z,5.33
2019-01-11T07:01:07.139Z,6.27
2019-01-11T07:03:40.797Z,5.37
2019-01-11T07:06:12.682Z,7.07
2019-01-11T07:08:44.059Z,6.87
2019-01-11T07:11:16.488Z,7.87
2019-01-11T07:13:48.935Z,6.80
2019-01-11T07:16:20.417Z,6.80
2019-01-11T07:18:52.311Z,6.87
2019-01-11T07:21:26.143Z,9.27
2019-01-11T07:23:57.778Z,8.43
2019-01-11T07:26:29.209Z,8.00
2019-01-11T07:29:02.500Z,10.27
2019-01-11T07:31:34.981Z,9.57
2019-01-11T07:34:07.963Z,9.40
2019-01-11T07:36:44.300Z,7.23
2019-01-11T07:39:34.789Z,8.63
2019-01-11T07:42:06.591Z,7.13
2019-01-11T07:44:37.973Z,8.73
2019-01-11T07:47:09.773Z,7.63
2019-01-11T07:49:42.314Z,9.80
2019-01-11T07:52:15.054Z,9.80
2019-01-11T07:54:46.803Z,11.40
2019-01-11T07:57:18.354Z,11.37
2019-01-11T07:59:51.276Z,12.93
2019-01-11T08:02:23.763Z,15.07
2019-01-11T08:04:55.571Z,15.93
2019-01-11T08:07:27.702Z,12.33
2019-01-11T08:09:59.573Z,16.53
2019-01-11T08:12:31.074Z,11.87
2019-01-11T08:15:02.889Z,16.37
2019-01-11T08:17:34.618Z,11.77
2019-01-11T08:20:07.306Z,13.73
2019-01-11T08:22:43.010Z,13.23
2019-01-11T08:25:15.652Z,18.57
2019-01-11T08:27:47.188Z,18.20
2019-01-11T08:30:19.304Z,24.90
2019-01-11T08:32:51.012Z,16.17
2019-01-11T08:35:22.630Z,15.40
2019-01-11T08:37:54.180Z,19.17
2019-01-11T08:40:25.624Z,23.93
2019-01-11T08:42:59.397Z,18.13
2019-01-11T08:45:30.802Z,18.97
2019-01-11T08:48:02.368Z,29.33
2019-01-11T08:50:33.972Z,20.00
2019-01-11T08:53:05.486Z,21.37
2019-01-11T08:55:37.100Z,24.30
2019-01-11T08:58:09.275Z,27.50
2019-01-11T09:00:41.325Z,32.17
2019-01-11T09:03:13.047Z,29.67
2019-01-11T09:05:45.899Z,32.17
2019-01-11T09:08:17.373Z,31.43
2019-01-11T09:10:49.227Z,34.33
2019-01-11T09:13:22.388Z,31.70
2019-01-11T09:15:54.126Z,35.13
2019-01-11T09:18:46.468Z,28.57
2019-01-11T09:21:18.175Z,39.30
2019-01-11T09:23:49.787Z,35.90
2019-01-11T09:26:23.449Z,34.50
2019-01-11T09:28:54.777Z,33.10
2019-01-11T09:31:26.325Z,38.27
2019-01-11T09:33:58.282Z,38.67
2019-01-11T09:36:29.970Z,38.77
2019-01-11T09:39:02.025Z,37.27
2019-01-11T09:41:33.443Z,44.80
2019-01-11T09:44:05.066Z,44.63
2019-01-11T09:46:36.871Z,37.50
2019-01-11T09:49:08.568Z,42.50
2019-01-11T09:51:40.079Z,31.93
2019-01-11T09:54:11.569Z,39.87
2019-01-11T09:56:43.171Z,41.47
2019-01-11T09:59:14.645Z,34.40
2019-01-11T10:01:48.021Z,35.43
2019-01-11T10:04:24.449Z,38.73
2019-01-11T10:07:07.949Z,35.63
2019-01-11T10:09:40.795Z,34.43
2019-01-11T10:12:12.471Z,32.70
2019-01-11T10:14:43.992Z,26.33
2019-01-11T10:17:15.971Z,28.57
2019-01-11T10:19:47.489Z,36.97
2019-01-11T10:22:19.089Z,28.23
2019-01-11T10:24:50.581Z,27.63
2019-01-11T10:27:23.135Z,25.10
2019-01-11T10:29:54.585Z,21.70
2019-01-11T10:32:26.235Z,27.63
2019-01-11T10:34:57.703Z,22.23
2019-01-11T10:37:29.603Z,21.57
2019-01-11T10:40:02.590Z,33.13
2019-01-11T10:42:34.047Z,18.50
2019-01-11T10:45:07.799Z,21.53
2019-01-11T10:47:40.699Z,26.53
2019-01-11T10:50:14.021Z,22.47
2019-01-11T10:52:45.863Z,16.13
2019-01-11T10:55:18.085Z,19.23
2019-01-11T10:57:50.746Z,13.23
2019-01-11T11:00:29.440Z,19.63
2019-01-11T11:03:01.628Z,17.20
2019-01-11T11:05:34.178Z,17.10
2019-01-11T11:08:06.294Z,16.90
2019-01-11T11:10:37.906Z,17.07
2019-01-11T11:13:11.198Z,18.83
2019-01-11T11:15:45.746Z,20.50
2019-01-11T11:18:17.709Z,13.70
2019-01-11T11:20:49.024Z,17.87
2019-01-11T11:23:20.652Z,12.90
2019-01-11T11:25:51.990Z,10.63
2019-01-11T11:28:25.126Z,18.73
2019-01-11T11:30:57.163Z,8.57
2019-01-11T11:33:30.084Z,11.20
2019-01-11T11:36:02.630Z,13.37
2019-01-11T11:38:34.451Z,9.73
2019-01-11T11:41:05.953Z,12.23
2019-01-11T11:43:37.475Z,12.20
2019-01-11T11:46:08.978Z,12.87
2019-01-11T11:48:41.892Z,15.50
2019-01-11T11:51:13.299Z,11.93
2019-01-11T11:53:46.420Z,12.90
2019-01-11T11:56:18.199Z,11.37
2019-01-11T11:58:50.760Z,11.57
2019-01-11T12:01:22.502Z,8.50
2019-01-11T12:03:54.057Z,13.60
2019-01-11T12:06:26.325Z,10.40
2019-01-11T12:08:59.601Z,10.03
2019-01-11T12:11:31.103Z,9.83
2019-01-11T12:14:04.591Z,10.10
2019-01-11T12:16:36.268Z,8.77
2019-01-11T12:19:09.277Z,13.37
2019-01-11T12:21:40.567Z,8.93
2019-01-11T12:24:11.952Z,9.63
2019-01-11T12:26:43.463Z,8.57
2019-01-11T12:29:15.147Z,9.60
2019-01-11T12:31:46.641Z,9.97
2019-01-11T12:34:18.169Z,13.00
2019-01-11T12:36:50.907Z,13.23
2019-01-11T12:39:22.998Z,12.67
2019-01-11T12:41:55.669Z,12.33
2019-01-11T12:44:27.013Z,9.87
2019-01-11T12:46:58.963Z,10.43
2019-01-11T12:49:30.572Z,8.23
2019-01-11T12:52:03.321Z,11.00
2019-01-11T12:54:36.414Z,7.93
2019-01-11T12:57:09.788Z,10.40
2019-01-11T12:59:41.887Z,10.37
2019-01-11T13:02:14.046Z,9.17
2019-01-11T13:04:45.839Z,8.07
2019-01-11T13:07:17.698Z,11.43
2019-01-11T13:09:49.302Z,10.77
2019-01-11T13:12:20.756Z,10.20
2019-01-11T13:14:53.053Z,9.73
2019-01-11T13:17:24.808Z,5.73
2019-01-11T13:19:56.591Z,7.53
2019-01-11T13:22:28.464Z,8.67
2019-01-11T13:25:02.936Z,11.43
2019-01-11T13:27:34.734Z,16.83
2019-01-11T13:30:08.407Z,16.60
2019-01-11T13:32:40.261Z,12.33
2019-01-11T13:35:12.542Z,12.43
2019-01-11T13:37:44.239Z,9.93
2019-01-11T13:40:18.220Z,10.97
2019-01-11T13:42:50.011Z,10.97
2019-01-11T13:45:22.566Z,12.70
2019-01-11T13:47:54.496Z,13.30
2019-01-11T13:50:40.232Z,9.83
2019-01-11T13:53:17.051Z,12.50
2019-01-11T13:55:48.940Z,15.20
2019-01-11T13:58:21.209Z,11.70
2019-01-11T14:00:52.747Z,12.00
2019-01-11T14:03:24.400Z,11.23
2019-01-11T14:05:55.864Z,7.47
2019-01-11T14:08:27.646Z,3.30
2019-01-11T14:10:59.187Z,3.43
2019-01-11T14:13:30.880Z,5.33
2019-01-11T14:16:02.868Z,6.67
2019-01-11T14:18:34.646Z,5.77
2019-01-11T14:21:06.328Z,7.50
2019-01-11T14:23:37.814Z,6.13
2019-01-11T14:26:09.344Z,5.07
2019-01-11T14:28:41.367Z,7.33
2019-01-11T14:31:13.034Z,8.70
2019-01-11T14:33:44.742Z,9.73
2019-01-11T14:36:16.427Z,5.20
2019-01-11T14:38:49.524Z,11.03
2019-01-11T14:41:21.192Z,10.73
2019-01-11T14:43:53.029Z,6.73
2019-01-11T14:46:25.007Z,10.43
2019-01-11T14:48:56.677Z,11.60
2019-01-11T14:51:29.447Z,12.33
2019-01-11T14:54:01.572Z,9.23
2019-01-11T14:56:34.757Z,10.67
2019-01-11T14:59:09.315Z,11.33
2019-01-11T15:01:45.051Z,12.63
2019-01-11T15:04:16.597Z,12.93
2019-01-11T15:06:48.129Z,13.83
2019-01-11T15:09:19.719Z,12.13
2019-01-11T15:11:51.413Z,13.93
2019-01-11T15:14:25.021Z,12.97
2019-01-11T15:16:58.224Z,10.47
2019-01-11T15:19:29.725Z,11.83
2019-01-11T15:22:01.595Z,13.33
2019-01-11T15:24:33.201Z,11.27
2019-01-11T15:27:04.900Z,16.23
2019-01-11T15:29:36.502Z,11.67
2019-01-11T15:32:09.608Z,13.87
2019-01-11T15:34:42.327Z,14.13
2019-01-11T15:37:14.399Z,15.03
2019-01-11T15:39:45.975Z,13.80
2019-01-11T15:42:19.384Z,10.63
2019-01-11T15:44:51.171Z,9.67
2019-01-11T15:47:23.337Z,10.80
2019-01-11T15:49:55.091Z,7.37
2019-01-11T15:52:33.331Z,10.80
2019-01-11T15:55:01.388Z,13.00
2019-01-11T15:57:42.696Z,6.30
2019-01-11T16:00:22.241Z,7.03
2019-01-11T16:02:54.598Z,10.97
2019-01-11T16:05:26.460Z,7.97
2019-01-11T16:07:57.833Z,7.93
2019-01-11T16:10:29.606Z,9.17
2019-01-11T16:13:30.701Z,10.20
2019-01-11T16:16:23.970Z,10.43
2019-01-11T16:18:57.234Z,9.20
2019-01-11T16:21:28.594Z,4.60
2019-01-11T16:24:02.899Z,4.90
2019-01-11T16:26:34.864Z,8.30
2019-01-11T16:29:07.510Z,4.97
2019-01-11T16:31:39.122Z,7.87
2019-01-11T16:34:10.899Z,7.23
2019-01-11T16:36:43.774Z,7.93
2019-01-11T16:39:15.450Z,7.20
2019-01-11T16:41:47.396Z,3.57
2019-01-11T16:44:18.801Z,6.00
2019-01-11T16:46:50.632Z,7.00
2019-01-11T16:49:23.237Z,4.77
2019-01-11T16:51:54.877Z,6.03
2019-01-11T16:54:26.594Z,6.70
2019-01-11T16:56:58.203Z,3.40
2019-01-11T16:59:29.755Z,7.73
2019-01-11T17:02:01.344Z,5.40
2019-01-11T17:04:32.894Z,9.07
2019-01-11T17:07:04.541Z,9.40
2019-01-11T17:09:36.106Z,7.03
2019-01-11T17:12:07.899Z,4.70
2019-01-11T17:14:41.106Z,6.07
2019-01-11T17:17:12.717Z,8.73
2019-01-11T17:19:44.600Z,6.67
2019-01-11T17:22:17.396Z,6.53
2019-01-11T17:24:48.874Z,9.70
2019-01-11T17:27:21.924Z,6.73
2019-01-11T17:29:53.768Z,8.47
2019-01-11T17:32:25.197Z,6.43
2019-01-11T17:34:56.966Z,10.90
2019-01-11T17:37:28.808Z,7.87
2019-01-11T17:40:01.372Z,5.03
2019-01-11T17:42:33.341Z,6.83
2019-01-11T17:45:07.035Z,9.93
2019-01-11T17:47:39.088Z,5.87
2019-01-11T17:50:14.134Z,10.00
2019-01-11T17:52:45.856Z,7.63
2019-01-11T17:55:24.323Z,9.47
2019-01-11T17:57:56.526Z,9.10
2019-01-11T18:00:28.318Z,10.33
2019-01-11T18:03:01.915Z,9.17
2019-01-11T18:05:33.987Z,8.50
2019-01-11T18:08:07.391Z,11.93
2019-01-11T18:10:38.828Z,8.77
2019-01-11T18:13:10.583Z,10.30
2019-01-11T18:15:42.125Z,11.30
2019-01-11T18:18:13.582Z,7.83
2019-01-11T18:20:45.243Z,9.67
2019-01-11T18:23:17.003Z,9.90
2019-01-11T18:25:48.380Z,6.37
2019-01-11T18:28:19.863Z,6.17
2019-01-11T18:30:51.503Z,8.73
2019-01-11T18:33:23.226Z,6.87
2019-01-11T18:35:54.720Z,6.33
2019-01-11T18:38:28.595Z,3.80
2019-01-11T18:41:02.834Z,6.37
2019-01-11T18:43:34.463Z,6.60
2019-01-11T18:46:06.449Z,5.07
2019-01-11T18:48:39.483Z,9.13
2019-01-11T18:51:10.817Z,4.00
2019-01-11T18:53:43.001Z,4.97
2019-01-11T18:56:14.687Z,5.73
2019-01-11T18:58:46.787Z,6.00
2019-01-11T19:01:18.259Z,10.43
2019-01-11T19:03:50.156Z,4.67
2019-01-11T19:06:21.624Z,5.23
2019-01-11T19:08:57.357Z,5.80
2019-01-11T19:11:29.111Z,7.63
2019-01-11T19:14:00.566Z,7.17
2019-01-11T19:16:32.318Z,4.90
2019-01-11T19:19:04.269Z,7.67
2019-01-11T19:21:35.914Z,3.50
2019-01-11T19:24:07.554Z,6.53
2019-01-11T19:26:38.953Z,5.93
2019-01-11T19:29:10.421Z,7.47
2019-01-11T19:31:42.452Z,7.33
2019-01-11T19:34:15.082Z,6.57
2019-01-11T19:36:47.571Z,7.43
2019-01-11T19:39:20.823Z,4.87
2019-01-11T19:41:52.654Z,3.40
2019-01-11T19:44:24.562Z,5.70
2019-01-11T19:46:56.120Z,5.57
2019-01-11T19:49:27.644Z,6.43
2019-01-11T19:51:59.492Z,4.30
2019-01-11T19:54:31.020Z,5.20
2019-01-11T19:57:02.486Z,3.90
2019-01-11T19:59:34.343Z,4.23
2019-01-11T20:02:06.286Z,7.70
2019-01-11T20:04:37.754Z,4.27
2019-01-11T20:07:09.883Z,3.63
2019-01-11T20:09:41.911Z,4.57
2019-01-11T20:12:14.211Z,4.13
2019-01-11T20:14:47.499Z,5.03
2019-01-11T20:17:18.940Z,3.27
2019-01-11T20:19:50.574Z,4.77
2019-01-11T20:22:22.318Z,3.77
2019-01-11T20:24:56.379Z,3.90
2019-01-11T20:27:28.390Z,4.07
2019-01-11T20:29:59.844Z,5.57
2019-01-11T20:32:32.363Z,6.83
2019-01-11T20:35:04.503Z,6.00
2019-01-11T20:37:36.165Z,4.10
2019-01-11T20:40:10.243Z,4.20
2019-01-11T20:42:41.583Z,5.87
2019-01-11T20:45:16.338Z,6.40
2019-01-11T20:47:47.874Z,5.47
2019-01-11T20:50:25.291Z,5.07
2019-01-11T20:52:58.492Z,3.17
2019-01-11T20:55:30.295Z,5.53
2019-01-11T20:58:04.640Z,3.80
2019-01-11T21:00:36.791Z,4.23
2019-01-11T21:03:08.879Z,3.97
2019-01-11T21:05:41.251Z,4.23
2019-01-11T21:08:14.516Z,2.90
2019-01-11T21:10:46.095Z,3.57
2019-01-11T21:13:19.392Z,3.70
2019-01-11T21:15:50.952Z,5.43
2019-01-11T21:18:22.660Z,3.20
2019-01-11T21:20:57.259Z,3.57
2019-01-11T21:23:28.593Z,3.07
2019-01-11T21:26:01.305Z,3.50
2019-01-11T21:28:34.196Z,4.00
2019-01-11T21:31:06.074Z,4.10
2019-01-11T21:33:37.585Z,2.60
2019-01-11T21:36:09.399Z,3.07
2019-01-11T21:38:40.739Z,3.00
2019-01-11T21:41:12.444Z,5.37
2019-01-11T21:43:45.919Z,4.23
2019-01-11T21:46:18.015Z,2.87
2019-01-11T21:48:50.056Z,5.23
2019-01-11T21:51:22.395Z,3.33
2019-01-11T21:53:55.856Z,3.33
2019-01-11T21:56:27.320Z,6.77
2019-01-11T21:58:58.654Z,4.27
2019-01-11T22:01:30.164Z,7.10
2019-01-11T22:04:02.724Z,3.63
2019-01-11T22:06:34.235Z,3.27
2019-01-11T22:09:08.639Z,4.70
2019-01-11T22:11:41.952Z,5.97
2019-01-11T22:14:13.799Z,5.70
2019-01-11T22:16:45.762Z,6.27
2019-01-11T22:19:17.627Z,4.73
2019-01-11T22:21:49.396Z,4.17
2019-01-11T22:24:20.933Z,5.67
2019-01-11T22:26:52.650Z,6.03
2019-01-11T22:29:24.676Z,6.57
2019-01-11T22:31:56.077Z,6.03
2019-01-11T22:34:29.644Z,7.80
2019-01-11T22:37:01.081Z,6.43
2019-01-11T22:39:34.932Z,5.30
2019-01-11T22:42:07.068Z,6.87
2019-01-11T22:44:42.644Z,7.53
2019-01-11T22:47:14.698Z,7.83
2019-01-11T22:49:46.053Z,8.47
2019-01-11T22:52:18.118Z,7.50
2019-01-11T22:54:50.083Z,9.20
2019-01-11T22:57:21.671Z,8.37
2019-01-11T22:59:53.246Z,11.37
2019-01-11T23:02:30.188Z,8.80
2019-01-11T23:05:02.156Z,11.27
2019-01-11T23:08:08.504Z,9.43
2019-01-11T23:11:03.883Z,10.77
2019-01-11T23:13:36.104Z,10.13
2019-01-11T23:16:33.584Z,14.13
2019-01-11T23:19:05.199Z,13.13
2019-01-11T23:21:37.201Z,11.17
2019-01-11T23:24:09.632Z,21.87
2019-01-11T23:26:41.022Z,12.97
2019-01-11T23:29:12.471Z,11.43
2019-01-11T23:31:44.043Z,14.43
2019-01-11T23:34:15.444Z,12.80
2019-01-11T23:36:47.459Z,13.33
2019-01-11T23:39:18.901Z,14.10
2019-01-11T23:41:51.669Z,13.73
2019-01-11T23:44:23.141Z,11.03
2019-01-11T23:46:54.595Z,12.80
2019-01-11T23:49:26.053Z,13.40
2019-01-11T23:51:58.547Z,15.97
2019-01-11T23:54:32.522Z,18.03
2019-01-11T23:57:04.685Z,18.00
2019-01-11T23:59:36.394Z,15.47
